sensor_id;sensor_type;location;lat;lon;timestamp;temperature;humidity
33715;DHT22;20043;50.998;4.754;2023-04-09T00:01:26;9.60;99.90
33715;DHT22;20043;50.998;4.754;2023-04-09T00:03:52;9.60;99.90
33715;DHT22;20043;50.998;4.754;2023-04-09T00:06:18;9.40;99.90
33715;DHT22;20043;50.998;4.754;2023-04-09T00:08:43;9.40;99.90
33715;DHT22;20043;50.998;4.754;2023-04-09T00:11:09;9.40;99.90
33715;DHT22;20043;50.998;4.754;2023-04-09T00:13:35;9.40;99.90
33715;DHT22;20043;50.998;4.754;2023-04-09T00:16:00;9.30;99.90
33715;DHT22;20043;50.998;4.754;2023-04-09T00:18:26;9.20;99.90
33715;DHT22;20043;50.998;4.754;2023-04-09T00:20:52;9.10;99.90
33715;DHT22;20043;50.998;4.754;2023-04-09T00:23:17;9.20;99.90
33715;DHT22;20043;50.998;4.754;2023-04-09T00:25:43;9.40;99.90
33715;DHT22;20043;50.998;4.754;2023-04-09T00:28:08;9.40;99.90
33715;DHT22;20043;50.998;4.754;2023-04-09T00:30:34;9.30;99.90
33715;DHT22;20043;50.998;4.754;2023-04-09T00:33:00;9.20;99.90
33715;DHT22;20043;50.998;4.754;2023-04-09T00:35:25;9.10;99.90
33715;DHT22;20043;50.998;4.754;2023-04-09T00:37:51;9.10;99.90
33715;DHT22;20043;50.998;4.754;2023-04-09T00:40:17;9.00;99.90
33715;DHT22;20043;50.998;4.754;2023-04-09T00:42:42;9.00;99.90
33715;DHT22;20043;50.998;4.754;2023-04-09T00:45:08;8.90;99.90
33715;DHT22;20043;50.998;4.754;2023-04-09T00:47:34;8.90;99.90
33715;DHT22;20043;50.998;4.754;2023-04-09T00:50:01;8.80;99.90
33715;DHT22;20043;50.998;4.754;2023-04-09T00:52:27;8.80;99.90
33715;DHT22;20043;50.998;4.754;2023-04-09T00:54:56;8.80;99.90
33715;DHT22;20043;50.998;4.754;2023-04-09T00:57:29;8.70;99.90
33715;DHT22;20043;50.998;4.754;2023-04-09T00:59:55;8.70;99.90
33715;DHT22;20043;50.998;4.754;2023-04-09T01:02:21;8.80;99.90
33715;DHT22;20043;50.998;4.754;2023-04-09T01:04:46;8.70;99.90
33715;DHT22;20043;50.998;4.754;2023-04-09T01:09:57;8.60;99.90
33715;DHT22;20043;50.998;4.754;2023-04-09T01:15:07;8.70;99.90
33715;DHT22;20043;50.998;4.754;2023-04-09T01:20:38;8.70;99.90
33715;DHT22;20043;50.998;4.754;2023-04-09T01:23:36;8.80;99.90
33715;DHT22;20043;50.998;4.754;2023-04-09T01:26:21;9.10;99.90
33715;DHT22;20043;50.998;4.754;2023-04-09T01:28:55;9.20;99.90
33715;DHT22;20043;50.998;4.754;2023-04-09T01:31:30;9.30;99.90
33715;DHT22;20043;50.998;4.754;2023-04-09T01:33:56;9.30;99.90
33715;DHT22;20043;50.998;4.754;2023-04-09T01:36:23;9.30;99.90
33715;DHT22;20043;50.998;4.754;2023-04-09T01:38:51;9.30;99.90
33715;DHT22;20043;50.998;4.754;2023-04-09T01:41:19;9.40;99.90
33715;DHT22;20043;50.998;4.754;2023-04-09T01:43:49;9.50;99.90
33715;DHT22;20043;50.998;4.754;2023-04-09T01:46:17;9.60;99.90
33715;DHT22;20043;50.998;4.754;2023-04-09T01:48:43;9.70;99.90
33715;DHT22;20043;50.998;4.754;2023-04-09T01:51:09;9.70;99.90
33715;DHT22;20043;50.998;4.754;2023-04-09T01:53:39;9.80;99.90
33715;DHT22;20043;50.998;4.754;2023-04-09T01:56:05;9.80;99.90
33715;DHT22;20043;50.998;4.754;2023-04-09T01:58:31;9.80;99.90
33715;DHT22;20043;50.998;4.754;2023-04-09T02:01:27;9.90;99.90
33715;DHT22;20043;50.998;4.754;2023-04-09T02:03:57;10.00;99.90
33715;DHT22;20043;50.998;4.754;2023-04-09T02:06:45;10.00;99.90
33715;DHT22;20043;50.998;4.754;2023-04-09T02:09:16;10.00;99.90
33715;DHT22;20043;50.998;4.754;2023-04-09T02:11:45;10.00;99.90
33715;DHT22;20043;50.998;4.754;2023-04-09T02:14:12;10.00;99.90
33715;DHT22;20043;50.998;4.754;2023-04-09T02:16:39;9.90;99.90
33715;DHT22;20043;50.998;4.754;2023-04-09T02:19:05;10.00;99.90
33715;DHT22;20043;50.998;4.754;2023-04-09T02:21:31;9.90;99.90
33715;DHT22;20043;50.998;4.754;2023-04-09T02:23:56;10.00;99.90
33715;DHT22;20043;50.998;4.754;2023-04-09T02:26:22;10.00;99.90
33715;DHT22;20043;50.998;4.754;2023-04-09T02:28:51;10.10;99.90
33715;DHT22;20043;50.998;4.754;2023-04-09T02:31:16;10.10;99.90
33715;DHT22;20043;50.998;4.754;2023-04-09T02:33:42;10.10;99.90
33715;DHT22;20043;50.998;4.754;2023-04-09T02:36:11;10.00;99.90
33715;DHT22;20043;50.998;4.754;2023-04-09T02:38:39;9.90;99.90
33715;DHT22;20043;50.998;4.754;2023-04-09T02:41:05;10.00;99.90
33715;DHT22;20043;50.998;4.754;2023-04-09T02:43:31;10.00;99.90
33715;DHT22;20043;50.998;4.754;2023-04-09T02:45:56;10.00;99.90
33715;DHT22;20043;50.998;4.754;2023-04-09T02:48:22;10.00;99.90
33715;DHT22;20043;50.998;4.754;2023-04-09T02:50:48;10.10;99.90
33715;DHT22;20043;50.998;4.754;2023-04-09T02:53:13;10.00;99.90
33715;DHT22;20043;50.998;4.754;2023-04-09T02:55:39;9.90;99.90
33715;DHT22;20043;50.998;4.754;2023-04-09T02:58:04;9.80;99.90
33715;DHT22;20043;50.998;4.754;2023-04-09T03:00:30;10.00;99.90
33715;DHT22;20043;50.998;4.754;2023-04-09T03:02:55;10.00;99.90
33715;DHT22;20043;50.998;4.754;2023-04-09T03:05:22;10.20;99.90
33715;DHT22;20043;50.998;4.754;2023-04-09T03:07:47;10.30;99.90
33715;DHT22;20043;50.998;4.754;2023-04-09T03:10:14;10.30;99.90
33715;DHT22;20043;50.998;4.754;2023-04-09T03:12:39;10.40;99.90
33715;DHT22;20043;50.998;4.754;2023-04-09T03:15:05;10.40;99.90
33715;DHT22;20043;50.998;4.754;2023-04-09T03:17:31;10.40;99.90
33715;DHT22;20043;50.998;4.754;2023-04-09T03:19:57;10.50;99.90
33715;DHT22;20043;50.998;4.754;2023-04-09T03:22:23;10.50;99.90
33715;DHT22;20043;50.998;4.754;2023-04-09T03:24:48;10.50;99.90
33715;DHT22;20043;50.998;4.754;2023-04-09T03:27:14;10.50;99.90
33715;DHT22;20043;50.998;4.754;2023-04-09T03:29:40;10.50;99.90
33715;DHT22;20043;50.998;4.754;2023-04-09T03:32:05;10.50;99.90
33715;DHT22;20043;50.998;4.754;2023-04-09T03:34:31;10.30;99.90
33715;DHT22;20043;50.998;4.754;2023-04-09T03:36:56;10.30;99.90
33715;DHT22;20043;50.998;4.754;2023-04-09T03:39:22;10.30;99.90
33715;DHT22;20043;50.998;4.754;2023-04-09T03:41:47;10.30;99.90
33715;DHT22;20043;50.998;4.754;2023-04-09T03:44:13;10.30;99.90
33715;DHT22;20043;50.998;4.754;2023-04-09T03:46:38;10.20;99.90
33715;DHT22;20043;50.998;4.754;2023-04-09T03:49:04;10.10;99.90
33715;DHT22;20043;50.998;4.754;2023-04-09T03:51:30;9.90;99.90
33715;DHT22;20043;50.998;4.754;2023-04-09T03:53:56;9.80;99.90
33715;DHT22;20043;50.998;4.754;2023-04-09T03:56:21;9.80;99.90
33715;DHT22;20043;50.998;4.754;2023-04-09T03:58:47;9.70;99.90
33715;DHT22;20043;50.998;4.754;2023-04-09T04:01:14;9.60;99.90
33715;DHT22;20043;50.998;4.754;2023-04-09T04:03:39;9.60;99.90
33715;DHT22;20043;50.998;4.754;2023-04-09T04:06:05;9.50;99.90
33715;DHT22;20043;50.998;4.754;2023-04-09T04:08:30;9.50;99.90
33715;DHT22;20043;50.998;4.754;2023-04-09T04:11:02;9.40;99.90
33715;DHT22;20043;50.998;4.754;2023-04-09T04:13:28;9.40;99.90
33715;DHT22;20043;50.998;4.754;2023-04-09T04:15:53;9.40;99.90
33715;DHT22;20043;50.998;4.754;2023-04-09T04:18:19;9.30;99.90
33715;DHT22;20043;50.998;4.754;2023-04-09T04:20:45;9.30;99.90
33715;DHT22;20043;50.998;4.754;2023-04-09T04:23:10;9.20;99.90
33715;DHT22;20043;50.998;4.754;2023-04-09T04:25:36;9.10;99.90
33715;DHT22;20043;50.998;4.754;2023-04-09T04:28:04;9.10;99.90
33715;DHT22;20043;50.998;4.754;2023-04-09T04:30:30;9.00;99.90
33715;DHT22;20043;50.998;4.754;2023-04-09T04:32:56;8.90;99.90
33715;DHT22;20043;50.998;4.754;2023-04-09T04:35:21;8.80;99.90
33715;DHT22;20043;50.998;4.754;2023-04-09T04:37:49;8.90;99.90
33715;DHT22;20043;50.998;4.754;2023-04-09T04:40:15;8.80;99.90
33715;DHT22;20043;50.998;4.754;2023-04-09T04:42:41;8.60;99.90
33715;DHT22;20043;50.998;4.754;2023-04-09T04:45:07;8.60;99.90
33715;DHT22;20043;50.998;4.754;2023-04-09T04:47:33;8.60;99.90
33715;DHT22;20043;50.998;4.754;2023-04-09T04:49:58;8.50;99.90
33715;DHT22;20043;50.998;4.754;2023-04-09T04:52:24;8.60;99.90
33715;DHT22;20043;50.998;4.754;2023-04-09T04:54:50;8.50;99.90
33715;DHT22;20043;50.998;4.754;2023-04-09T04:57:15;8.40;99.90
33715;DHT22;20043;50.998;4.754;2023-04-09T04:59:41;8.40;99.90
33715;DHT22;20043;50.998;4.754;2023-04-09T05:02:06;8.40;99.90
33715;DHT22;20043;50.998;4.754;2023-04-09T05:04:32;8.40;99.90
33715;DHT22;20043;50.998;4.754;2023-04-09T05:06:58;8.40;99.90
33715;DHT22;20043;50.998;4.754;2023-04-09T05:09:23;8.40;99.90
33715;DHT22;20043;50.998;4.754;2023-04-09T05:11:49;8.50;99.90
33715;DHT22;20043;50.998;4.754;2023-04-09T05:14:15;8.40;99.90
33715;DHT22;20043;50.998;4.754;2023-04-09T05:16:40;8.50;99.90
33715;DHT22;20043;50.998;4.754;2023-04-09T05:19:06;8.50;99.90
33715;DHT22;20043;50.998;4.754;2023-04-09T05:21:32;8.40;99.90
33715;DHT22;20043;50.998;4.754;2023-04-09T05:23:57;8.40;99.90
33715;DHT22;20043;50.998;4.754;2023-04-09T05:26:23;8.50;99.90
33715;DHT22;20043;50.998;4.754;2023-04-09T05:28:49;8.50;99.90
33715;DHT22;20043;50.998;4.754;2023-04-09T05:31:14;8.40;99.90
33715;DHT22;20043;50.998;4.754;2023-04-09T05:33:41;8.50;99.90
33715;DHT22;20043;50.998;4.754;2023-04-09T05:36:07;8.70;99.90
33715;DHT22;20043;50.998;4.754;2023-04-09T05:38:32;8.80;99.90
33715;DHT22;20043;50.998;4.754;2023-04-09T05:40:58;8.90;99.90
33715;DHT22;20043;50.998;4.754;2023-04-09T05:43:24;8.90;99.90
33715;DHT22;20043;50.998;4.754;2023-04-09T05:45:50;9.10;99.90
33715;DHT22;20043;50.998;4.754;2023-04-09T05:48:15;9.20;99.90
33715;DHT22;20043;50.998;4.754;2023-04-09T05:50:48;9.30;99.90
33715;DHT22;20043;50.998;4.754;2023-04-09T05:53:14;9.60;99.90
33715;DHT22;20043;50.998;4.754;2023-04-09T05:55:40;9.80;99.90
33715;DHT22;20043;50.998;4.754;2023-04-09T05:58:05;9.90;99.90
33715;DHT22;20043;50.998;4.754;2023-04-09T06:00:31;10.10;99.90
33715;DHT22;20043;50.998;4.754;2023-04-09T06:02:56;10.30;99.90
33715;DHT22;20043;50.998;4.754;2023-04-09T06:05:22;10.50;99.90
33715;DHT22;20043;50.998;4.754;2023-04-09T06:07:48;10.70;99.90
33715;DHT22;20043;50.998;4.754;2023-04-09T06:10:13;10.90;99.90
33715;DHT22;20043;50.998;4.754;2023-04-09T06:12:39;11.10;99.90
33715;DHT22;20043;50.998;4.754;2023-04-09T06:15:05;11.30;99.90
33715;DHT22;20043;50.998;4.754;2023-04-09T06:17:30;11.50;99.90
33715;DHT22;20043;50.998;4.754;2023-04-09T06:19:56;11.70;99.90
33715;DHT22;20043;50.998;4.754;2023-04-09T06:22:21;11.90;99.90
33715;DHT22;20043;50.998;4.754;2023-04-09T06:24:47;12.10;99.90
33715;DHT22;20043;50.998;4.754;2023-04-09T06:27:13;12.10;99.90
33715;DHT22;20043;50.998;4.754;2023-04-09T06:29:38;12.10;99.90
33715;DHT22;20043;50.998;4.754;2023-04-09T06:32:04;12.00;99.90
33715;DHT22;20043;50.998;4.754;2023-04-09T06:34:30;12.10;99.90
33715;DHT22;20043;50.998;4.754;2023-04-09T06:36:55;12.00;99.90
33715;DHT22;20043;50.998;4.754;2023-04-09T06:39:21;11.80;99.90
33715;DHT22;20043;50.998;4.754;2023-04-09T06:41:47;11.80;99.90
33715;DHT22;20043;50.998;4.754;2023-04-09T06:44:20;11.90;99.90
33715;DHT22;20043;50.998;4.754;2023-04-09T06:46:46;11.90;99.90
33715;DHT22;20043;50.998;4.754;2023-04-09T06:49:11;11.90;99.90
33715;DHT22;20043;50.998;4.754;2023-04-09T06:51:37;11.80;99.90
33715;DHT22;20043;50.998;4.754;2023-04-09T06:54:03;11.90;99.90
33715;DHT22;20043;50.998;4.754;2023-04-09T06:56:28;12.00;99.90
33715;DHT22;20043;50.998;4.754;2023-04-09T06:58:54;12.20;99.90
33715;DHT22;20043;50.998;4.754;2023-04-09T07:01:19;12.20;99.90
33715;DHT22;20043;50.998;4.754;2023-04-09T07:03:45;12.20;99.90
33715;DHT22;20043;50.998;4.754;2023-04-09T07:06:11;12.30;99.90
33715;DHT22;20043;50.998;4.754;2023-04-09T07:08:37;12.40;99.90
33715;DHT22;20043;50.998;4.754;2023-04-09T07:11:02;12.50;99.90
33715;DHT22;20043;50.998;4.754;2023-04-09T07:13:28;12.50;99.90
33715;DHT22;20043;50.998;4.754;2023-04-09T07:15:54;12.60;99.90
33715;DHT22;20043;50.998;4.754;2023-04-09T07:18:19;12.60;99.90
33715;DHT22;20043;50.998;4.754;2023-04-09T07:20:45;12.60;99.90
33715;DHT22;20043;50.998;4.754;2023-04-09T07:23:10;12.60;99.90
33715;DHT22;20043;50.998;4.754;2023-04-09T07:25:36;12.60;99.90
33715;DHT22;20043;50.998;4.754;2023-04-09T07:28:02;12.50;99.90
33715;DHT22;20043;50.998;4.754;2023-04-09T07:30:27;12.50;99.90
33715;DHT22;20043;50.998;4.754;2023-04-09T07:32:53;12.60;99.90
33715;DHT22;20043;50.998;4.754;2023-04-09T07:35:19;12.70;99.90
33715;DHT22;20043;50.998;4.754;2023-04-09T07:37:45;12.80;99.90
33715;DHT22;20043;50.998;4.754;2023-04-09T07:40:11;12.80;99.90
33715;DHT22;20043;50.998;4.754;2023-04-09T07:42:37;12.80;99.90
33715;DHT22;20043;50.998;4.754;2023-04-09T07:45:04;13.00;99.90
33715;DHT22;20043;50.998;4.754;2023-04-09T07:47:30;13.10;99.90
33715;DHT22;20043;50.998;4.754;2023-04-09T07:49:56;13.10;99.90
33715;DHT22;20043;50.998;4.754;2023-04-09T07:52:22;13.30;99.90
33715;DHT22;20043;50.998;4.754;2023-04-09T07:54:47;13.00;99.90
33715;DHT22;20043;50.998;4.754;2023-04-09T07:57:13;13.10;99.90
33715;DHT22;20043;50.998;4.754;2023-04-09T07:59:39;13.20;99.90
33715;DHT22;20043;50.998;4.754;2023-04-09T08:02:04;13.20;99.90
33715;DHT22;20043;50.998;4.754;2023-04-09T08:04:30;13.30;99.90
33715;DHT22;20043;50.998;4.754;2023-04-09T08:06:56;13.30;99.90
33715;DHT22;20043;50.998;4.754;2023-04-09T08:09:22;13.40;99.90
33715;DHT22;20043;50.998;4.754;2023-04-09T08:11:48;13.40;99.90
33715;DHT22;20043;50.998;4.754;2023-04-09T08:14:15;13.50;99.90
33715;DHT22;20043;50.998;4.754;2023-04-09T08:16:47;13.60;99.90
33715;DHT22;20043;50.998;4.754;2023-04-09T08:19:15;13.70;99.90
33715;DHT22;20043;50.998;4.754;2023-04-09T08:21:42;13.80;99.90
33715;DHT22;20043;50.998;4.754;2023-04-09T08:24:09;14.00;99.90
33715;DHT22;20043;50.998;4.754;2023-04-09T08:26:36;14.00;99.90
33715;DHT22;20043;50.998;4.754;2023-04-09T08:29:01;14.10;99.90
33715;DHT22;20043;50.998;4.754;2023-04-09T08:31:27;14.30;99.90
33715;DHT22;20043;50.998;4.754;2023-04-09T08:33:53;14.40;99.90
33715;DHT22;20043;50.998;4.754;2023-04-09T08:36:19;14.00;99.90
33715;DHT22;20043;50.998;4.754;2023-04-09T08:38:46;14.10;99.90
33715;DHT22;20043;50.998;4.754;2023-04-09T08:41:17;14.10;99.90
33715;DHT22;20043;50.998;4.754;2023-04-09T08:43:46;14.30;99.90
33715;DHT22;20043;50.998;4.754;2023-04-09T08:46:11;14.10;99.90
33715;DHT22;20043;50.998;4.754;2023-04-09T08:48:41;14.20;99.90
33715;DHT22;20043;50.998;4.754;2023-04-09T08:51:21;14.40;99.90
33715;DHT22;20043;50.998;4.754;2023-04-09T08:53:54;14.60;99.90
33715;DHT22;20043;50.998;4.754;2023-04-09T08:56:20;14.50;99.90
33715;DHT22;20043;50.998;4.754;2023-04-09T08:58:47;14.40;99.90
33715;DHT22;20043;50.998;4.754;2023-04-09T09:01:26;14.40;99.90
33715;DHT22;20043;50.998;4.754;2023-04-09T09:04:00;14.60;99.90
33715;DHT22;20043;50.998;4.754;2023-04-09T09:06:28;14.50;99.90
33715;DHT22;20043;50.998;4.754;2023-04-09T09:09:15;14.60;99.90
33715;DHT22;20043;50.998;4.754;2023-04-09T09:11:46;14.80;99.90
33715;DHT22;20043;50.998;4.754;2023-04-09T09:14:17;14.90;99.90
33715;DHT22;20043;50.998;4.754;2023-04-09T09:17:02;15.10;99.90
33715;DHT22;20043;50.998;4.754;2023-04-09T09:19:30;15.20;99.90
33715;DHT22;20043;50.998;4.754;2023-04-09T09:22:05;15.40;99.90
33715;DHT22;20043;50.998;4.754;2023-04-09T09:24:33;15.60;99.90
33715;DHT22;20043;50.998;4.754;2023-04-09T09:26:59;15.80;99.90
33715;DHT22;20043;50.998;4.754;2023-04-09T09:29:26;15.80;99.90
33715;DHT22;20043;50.998;4.754;2023-04-09T09:31:53;15.90;99.90
33715;DHT22;20043;50.998;4.754;2023-04-09T09:34:20;16.00;99.90
33715;DHT22;20043;50.998;4.754;2023-04-09T09:36:46;16.10;99.90
33715;DHT22;20043;50.998;4.754;2023-04-09T09:39:13;16.00;99.90
33715;DHT22;20043;50.998;4.754;2023-04-09T09:41:40;15.90;99.90
33715;DHT22;20043;50.998;4.754;2023-04-09T09:44:07;16.00;99.90
33715;DHT22;20043;50.998;4.754;2023-04-09T09:46:38;16.30;99.90
33715;DHT22;20043;50.998;4.754;2023-04-09T09:49:05;16.20;99.90
33715;DHT22;20043;50.998;4.754;2023-04-09T09:51:32;16.20;99.90
33715;DHT22;20043;50.998;4.754;2023-04-09T09:53:58;16.20;99.90
33715;DHT22;20043;50.998;4.754;2023-04-09T09:56:30;16.30;99.90
33715;DHT22;20043;50.998;4.754;2023-04-09T10:01:25;16.50;99.90
33715;DHT22;20043;50.998;4.754;2023-04-09T10:03:52;16.50;99.90
33715;DHT22;20043;50.998;4.754;2023-04-09T10:06:21;16.30;99.90
33715;DHT22;20043;50.998;4.754;2023-04-09T10:08:48;16.50;99.90
33715;DHT22;20043;50.998;4.754;2023-04-09T10:11:20;16.60;99.90
33715;DHT22;20043;50.998;4.754;2023-04-09T10:13:58;16.60;99.90
33715;DHT22;20043;50.998;4.754;2023-04-09T10:16:26;16.80;99.90
33715;DHT22;20043;50.998;4.754;2023-04-09T10:18:57;17.00;99.90
33715;DHT22;20043;50.998;4.754;2023-04-09T10:23:58;16.70;99.90
33715;DHT22;20043;50.998;4.754;2023-04-09T10:26:25;16.70;99.90
33715;DHT22;20043;50.998;4.754;2023-04-09T10:29:11;16.60;99.90
33715;DHT22;20043;50.998;4.754;2023-04-09T10:32:02;16.70;99.90
33715;DHT22;20043;50.998;4.754;2023-04-09T10:34:28;16.90;99.90
33715;DHT22;20043;50.998;4.754;2023-04-09T10:36:57;17.00;99.90
33715;DHT22;20043;50.998;4.754;2023-04-09T10:39:30;17.10;99.90
33715;DHT22;20043;50.998;4.754;2023-04-09T10:41:57;17.10;99.90
33715;DHT22;20043;50.998;4.754;2023-04-09T10:44:25;17.20;99.90
33715;DHT22;20043;50.998;4.754;2023-04-09T10:46:59;17.10;99.90
33715;DHT22;20043;50.998;4.754;2023-04-09T10:49:26;17.10;99.90
33715;DHT22;20043;50.998;4.754;2023-04-09T10:52:02;17.00;99.90
33715;DHT22;20043;50.998;4.754;2023-04-09T10:57:09;17.20;99.90
33715;DHT22;20043;50.998;4.754;2023-04-09T10:59:35;17.20;99.90
33715;DHT22;20043;50.998;4.754;2023-04-09T11:02:01;17.30;99.90
33715;DHT22;20043;50.998;4.754;2023-04-09T11:04:40;17.40;99.90
33715;DHT22;20043;50.998;4.754;2023-04-09T11:07:14;17.60;99.90
33715;DHT22;20043;50.998;4.754;2023-04-09T11:09:42;17.70;99.90
33715;DHT22;20043;50.998;4.754;2023-04-09T11:12:10;17.80;99.90
33715;DHT22;20043;50.998;4.754;2023-04-09T11:14:36;18.00;99.90
33715;DHT22;20043;50.998;4.754;2023-04-09T11:17:02;18.10;99.90
33715;DHT22;20043;50.998;4.754;2023-04-09T11:19:28;17.90;99.90
33715;DHT22;20043;50.998;4.754;2023-04-09T11:21:53;18.00;99.90
33715;DHT22;20043;50.998;4.754;2023-04-09T11:24:20;18.00;99.90
33715;DHT22;20043;50.998;4.754;2023-04-09T11:26:47;18.20;99.90
33715;DHT22;20043;50.998;4.754;2023-04-09T11:29:13;18.20;99.90
33715;DHT22;20043;50.998;4.754;2023-04-09T11:31:43;18.00;99.90
33715;DHT22;20043;50.998;4.754;2023-04-09T11:34:10;18.20;99.90
33715;DHT22;20043;50.998;4.754;2023-04-09T11:36:37;18.10;99.90
33715;DHT22;20043;50.998;4.754;2023-04-09T11:39:03;17.90;99.90
33715;DHT22;20043;50.998;4.754;2023-04-09T11:41:35;17.80;99.90
33715;DHT22;20043;50.998;4.754;2023-04-09T11:44:03;18.10;99.90
33715;DHT22;20043;50.998;4.754;2023-04-09T11:46:31;18.20;99.90
33715;DHT22;20043;50.998;4.754;2023-04-09T11:48:57;18.40;99.90
33715;DHT22;20043;50.998;4.754;2023-04-09T11:51:22;18.60;99.90
33715;DHT22;20043;50.998;4.754;2023-04-09T11:53:48;18.80;99.90
33715;DHT22;20043;50.998;4.754;2023-04-09T11:56:15;18.80;99.90
33715;DHT22;20043;50.998;4.754;2023-04-09T11:58:47;18.70;99.90
33715;DHT22;20043;50.998;4.754;2023-04-09T12:01:13;18.70;99.90
33715;DHT22;20043;50.998;4.754;2023-04-09T12:03:40;18.40;99.90
33715;DHT22;20043;50.998;4.754;2023-04-09T12:06:06;18.40;99.90
33715;DHT22;20043;50.998;4.754;2023-04-09T12:08:34;18.30;99.90
33715;DHT22;20043;50.998;4.754;2023-04-09T12:11:11;18.40;99.90
33715;DHT22;20043;50.998;4.754;2023-04-09T12:13:36;18.70;99.90
33715;DHT22;20043;50.998;4.754;2023-04-09T12:16:07;18.80;99.90
33715;DHT22;20043;50.998;4.754;2023-04-09T12:18:35;18.70;99.90
33715;DHT22;20043;50.998;4.754;2023-04-09T12:21:02;18.70;99.90
33715;DHT22;20043;50.998;4.754;2023-04-09T12:23:27;18.70;99.90
33715;DHT22;20043;50.998;4.754;2023-04-09T12:25:55;18.80;99.90
33715;DHT22;20043;50.998;4.754;2023-04-09T12:28:24;18.50;99.90
33715;DHT22;20043;50.998;4.754;2023-04-09T12:30:50;18.50;99.90
33715;DHT22;20043;50.998;4.754;2023-04-09T12:33:15;18.60;99.90
33715;DHT22;20043;50.998;4.754;2023-04-09T12:35:41;18.70;99.90
33715;DHT22;20043;50.998;4.754;2023-04-09T12:38:07;18.60;99.90
33715;DHT22;20043;50.998;4.754;2023-04-09T12:40:34;18.70;99.90
33715;DHT22;20043;50.998;4.754;2023-04-09T12:42:59;18.60;99.90
33715;DHT22;20043;50.998;4.754;2023-04-09T12:45:25;18.40;99.90
33715;DHT22;20043;50.998;4.754;2023-04-09T12:47:52;18.20;99.90
33715;DHT22;20043;50.998;4.754;2023-04-09T12:50:17;18.10;99.90
33715;DHT22;20043;50.998;4.754;2023-04-09T12:52:44;18.30;99.90
33715;DHT22;20043;50.998;4.754;2023-04-09T12:55:10;18.20;99.90
33715;DHT22;20043;50.998;4.754;2023-04-09T12:57:37;18.30;99.90
33715;DHT22;20043;50.998;4.754;2023-04-09T13:00:05;18.00;99.90
33715;DHT22;20043;50.998;4.754;2023-04-09T13:02:32;17.80;99.90
33715;DHT22;20043;50.998;4.754;2023-04-09T13:04:58;17.80;99.90
33715;DHT22;20043;50.998;4.754;2023-04-09T13:07:24;18.00;99.90
33715;DHT22;20043;50.998;4.754;2023-04-09T13:09:53;18.30;99.90
33715;DHT22;20043;50.998;4.754;2023-04-09T13:12:19;18.30;99.90
33715;DHT22;20043;50.998;4.754;2023-04-09T13:14:46;18.10;99.90
33715;DHT22;20043;50.998;4.754;2023-04-09T13:17:13;18.20;99.90
33715;DHT22;20043;50.998;4.754;2023-04-09T13:19:38;18.30;99.90
33715;DHT22;20043;50.998;4.754;2023-04-09T13:22:04;18.20;99.90
33715;DHT22;20043;50.998;4.754;2023-04-09T13:24:35;18.10;99.90
33715;DHT22;20043;50.998;4.754;2023-04-09T13:27:02;18.30;99.90
33715;DHT22;20043;50.998;4.754;2023-04-09T13:29:27;18.10;99.90
33715;DHT22;20043;50.998;4.754;2023-04-09T13:31:54;18.20;99.90
33715;DHT22;20043;50.998;4.754;2023-04-09T13:34:21;18.40;99.90
33715;DHT22;20043;50.998;4.754;2023-04-09T13:36:53;18.90;99.90
33715;DHT22;20043;50.998;4.754;2023-04-09T13:39:19;19.00;99.90
33715;DHT22;20043;50.998;4.754;2023-04-09T13:41:44;19.00;99.90
33715;DHT22;20043;50.998;4.754;2023-04-09T13:44:10;19.00;99.90
33715;DHT22;20043;50.998;4.754;2023-04-09T13:46:36;18.90;99.90
33715;DHT22;20043;50.998;4.754;2023-04-09T13:49:02;18.80;99.90
33715;DHT22;20043;50.998;4.754;2023-04-09T13:51:27;18.70;99.90
33715;DHT22;20043;50.998;4.754;2023-04-09T13:53:54;18.90;99.90
33715;DHT22;20043;50.998;4.754;2023-04-09T13:56:20;19.10;99.90
33715;DHT22;20043;50.998;4.754;2023-04-09T13:58:45;19.30;99.90
33715;DHT22;20043;50.998;4.754;2023-04-09T14:01:12;19.60;99.90
33715;DHT22;20043;50.998;4.754;2023-04-09T14:03:39;19.70;99.90
33715;DHT22;20043;50.998;4.754;2023-04-09T14:06:06;19.80;99.90
33715;DHT22;20043;50.998;4.754;2023-04-09T14:08:33;19.90;99.90
33715;DHT22;20043;50.998;4.754;2023-04-09T14:10:59;20.10;99.90
33715;DHT22;20043;50.998;4.754;2023-04-09T14:13:24;20.10;99.90
33715;DHT22;20043;50.998;4.754;2023-04-09T14:15:50;20.30;99.90
33715;DHT22;20043;50.998;4.754;2023-04-09T14:18:15;20.20;99.90
33715;DHT22;20043;50.998;4.754;2023-04-09T14:20:41;20.10;99.90
33715;DHT22;20043;50.998;4.754;2023-04-09T14:23:06;20.00;99.90
33715;DHT22;20043;50.998;4.754;2023-04-09T14:25:32;19.90;99.90
33715;DHT22;20043;50.998;4.754;2023-04-09T14:27:58;19.90;99.90
33715;DHT22;20043;50.998;4.754;2023-04-09T14:30:23;20.00;99.90
33715;DHT22;20043;50.998;4.754;2023-04-09T14:32:49;20.10;99.90
33715;DHT22;20043;50.998;4.754;2023-04-09T14:35:15;20.10;99.90
33715;DHT22;20043;50.998;4.754;2023-04-09T14:37:40;20.20;99.90
33715;DHT22;20043;50.998;4.754;2023-04-09T14:40:09;20.30;99.90
33715;DHT22;20043;50.998;4.754;2023-04-09T14:42:35;20.10;99.90
33715;DHT22;20043;50.998;4.754;2023-04-09T14:45:01;20.10;99.90
33715;DHT22;20043;50.998;4.754;2023-04-09T14:47:26;20.10;99.90
33715;DHT22;20043;50.998;4.754;2023-04-09T14:49:52;19.90;99.90
33715;DHT22;20043;50.998;4.754;2023-04-09T14:52:17;19.90;99.90
33715;DHT22;20043;50.998;4.754;2023-04-09T14:54:43;19.60;99.90
33715;DHT22;20043;50.998;4.754;2023-04-09T14:57:09;19.60;99.90
33715;DHT22;20043;50.998;4.754;2023-04-09T14:59:35;19.50;99.90
33715;DHT22;20043;50.998;4.754;2023-04-09T15:02:00;19.40;99.90
33715;DHT22;20043;50.998;4.754;2023-04-09T15:04:27;19.40;99.90
33715;DHT22;20043;50.998;4.754;2023-04-09T15:06:52;19.30;99.90
33715;DHT22;20043;50.998;4.754;2023-04-09T15:09:18;19.40;99.90
33715;DHT22;20043;50.998;4.754;2023-04-09T15:11:43;19.50;99.90
33715;DHT22;20043;50.998;4.754;2023-04-09T15:14:09;19.30;99.90
33715;DHT22;20043;50.998;4.754;2023-04-09T15:16:35;19.10;99.90
33715;DHT22;20043;50.998;4.754;2023-04-09T15:19:03;18.90;99.90
33715;DHT22;20043;50.998;4.754;2023-04-09T15:21:29;19.00;99.90
33715;DHT22;20043;50.998;4.754;2023-04-09T15:23:56;19.00;99.90
33715;DHT22;20043;50.998;4.754;2023-04-09T15:26:23;19.20;99.90
33715;DHT22;20043;50.998;4.754;2023-04-09T15:28:50;19.40;99.90
33715;DHT22;20043;50.998;4.754;2023-04-09T15:31:17;19.30;99.90
33715;DHT22;20043;50.998;4.754;2023-04-09T15:33:43;19.20;99.90
33715;DHT22;20043;50.998;4.754;2023-04-09T15:36:09;19.10;99.90
33715;DHT22;20043;50.998;4.754;2023-04-09T15:38:35;19.20;99.90
33715;DHT22;20043;50.998;4.754;2023-04-09T15:41:01;19.20;99.90
33715;DHT22;20043;50.998;4.754;2023-04-09T15:43:27;19.20;99.90
33715;DHT22;20043;50.998;4.754;2023-04-09T15:45:52;19.10;99.90
33715;DHT22;20043;50.998;4.754;2023-04-09T15:48:18;19.20;99.90
33715;DHT22;20043;50.998;4.754;2023-04-09T15:50:44;19.30;99.90